sensor_id;sensor_type;location;lat;lon;timestamp;pressure;altitude;pressure_sealevel;temperature;humidity
45255;BME280;30989;52.078;21.014;2024-01-30T00:01:39;163568.66;;;-0.69;100.00
45255;BME280;30989;52.078;21.014;2024-01-30T00:04:04;163548.72;;;-0.77;100.00
45255;BME280;30989;52.078;21.014;2024-01-30T00:06:30;163576.63;;;-0.66;100.00
45255;BME280;30989;52.078;21.014;2024-01-30T00:08:56;163572.66;;;-0.68;100.00
45255;BME280;30989;52.078;21.014;2024-01-30T00:11:22;163579.28;;;-0.65;100.00
45255;BME280;30989;52.078;21.014;2024-01-30T00:13:47;163579.28;;;-0.65;100.00
45255;BME280;30989;52.078;21.014;2024-01-30T00:16:23;163585.94;;;-0.62;100.00
45255;BME280;30989;52.078;21.014;2024-01-30T00:18:52;163579.28;;;-0.65;100.00
45255;BME280;30989;52.078;21.014;2024-01-30T00:21:18;163579.28;;;-0.65;100.00
45255;BME280;30989;52.078;21.014;2024-01-30T00:23:43;163589.94;;;-0.61;100.00
45255;BME280;30989;52.078;21.014;2024-01-30T00:26:09;163570.00;;;-0.69;100.00
45255;BME280;30989;52.078;21.014;2024-01-30T00:28:35;163584.63;;;-0.63;100.00
45255;BME280;30989;52.078;21.014;2024-01-30T00:31:00;163589.94;;;-0.61;100.00
45255;BME280;30989;52.078;21.014;2024-01-30T00:33:26;163595.25;;;-0.59;100.00
45255;BME280;30989;52.078;21.014;2024-01-30T00:35:51;163584.63;;;-0.63;100.00
45255;BME280;30989;52.078;21.014;2024-01-30T00:38:17;163603.22;;;-0.56;100.00
45255;BME280;30989;52.078;21.014;2024-01-30T00:40:42;163611.19;;;-0.53;100.00
45255;BME280;30989;52.078;21.014;2024-01-30T00:43:11;163615.19;;;-0.51;100.00
45255;BME280;30989;52.078;21.014;2024-01-30T00:45:36;163616.50;;;-0.51;100.00
45255;BME280;30989;52.078;21.014;2024-01-30T00:48:02;163619.16;;;-0.50;100.00
45255;BME280;30989;52.078;21.014;2024-01-30T00:50:27;163615.19;;;-0.51;100.00
45255;BME280;30989;52.078;21.014;2024-01-30T00:52:53;163617.84;;;-0.50;100.00
45255;BME280;30989;52.078;21.014;2024-01-30T00:55:18;163612.53;;;-0.52;100.00
45255;BME280;30989;52.078;21.014;2024-01-30T00:57:44;163619.16;;;-0.50;100.00
45255;BME280;30989;52.078;21.014;2024-01-30T01:00:10;163604.56;;;-0.55;100.00
45255;BME280;30989;52.078;21.014;2024-01-30T01:02:36;163605.88;;;-0.55;100.00
45255;BME280;30989;52.078;21.014;2024-01-30T01:05:02;163625.81;;;-0.47;100.00
45255;BME280;30989;52.078;21.014;2024-01-30T01:07:27;163632.47;;;-0.45;100.00
45255;BME280;30989;52.078;21.014;2024-01-30T01:09:53;163633.78;;;-0.44;100.00
45255;BME280;30989;52.078;21.014;2024-01-30T01:12:18;163635.13;;;-0.44;100.00
45255;BME280;30989;52.078;21.014;2024-01-30T01:14:47;163643.09;;;-0.41;100.00
45255;BME280;30989;52.078;21.014;2024-01-30T01:17:13;163633.78;;;-0.44;100.00
45255;BME280;30989;52.078;21.014;2024-01-30T01:19:38;163645.75;;;-0.40;100.00
45255;BME280;30989;52.078;21.014;2024-01-30T01:22:03;163656.38;;;-0.36;100.00
45255;BME280;30989;52.078;21.014;2024-01-30T01:24:31;163655.06;;;-0.36;100.00
45255;BME280;30989;52.078;21.014;2024-01-30T01:26:58;163653.72;;;-0.37;100.00
45255;BME280;30989;52.078;21.014;2024-01-30T01:29:24;163644.41;;;-0.40;100.00
45255;BME280;30989;52.078;21.014;2024-01-30T01:31:57;163648.41;;;-0.39;100.00
45255;BME280;30989;52.078;21.014;2024-01-30T01:34:22;163640.44;;;-0.42;100.00
45255;BME280;30989;52.078;21.014;2024-01-30T01:36:51;163641.75;;;-0.41;100.00
45255;BME280;30989;52.078;21.014;2024-01-30T01:39:19;163632.47;;;-0.45;100.00
45255;BME280;30989;52.078;21.014;2024-01-30T01:41:44;163624.47;;;-0.48;100.00
45255;BME280;30989;52.078;21.014;2024-01-30T01:44:10;163603.22;;;-0.56;100.00
45255;BME280;30989;52.078;21.014;2024-01-30T01:46:36;163611.19;;;-0.53;100.00
45255;BME280;30989;52.078;21.014;2024-01-30T01:49:05;163600.56;;;-0.57;100.00
45255;BME280;30989;52.078;21.014;2024-01-30T01:51:33;163592.59;;;-0.60;100.00
45255;BME280;30989;52.078;21.014;2024-01-30T01:54:01;163587.28;;;-0.62;100.00
45255;BME280;30989;52.078;21.014;2024-01-30T01:56:28;163581.97;;;-0.64;100.00
45255;BME280;30989;52.078;21.014;2024-01-30T01:58:54;163566.00;;;-0.70;100.00
45255;BME280;30989;52.078;21.014;2024-01-30T02:01:20;163558.03;;;-0.73;100.00
45255;BME280;30989;52.078;21.014;2024-01-30T02:03:46;163546.06;;;-0.78;100.00
45255;BME280;30989;52.078;21.014;2024-01-30T02:06:15;163542.09;;;-0.79;100.00
45255;BME280;30989;52.078;21.014;2024-01-30T02:08:41;163534.13;;;-0.82;100.00
45255;BME280;30989;52.078;21.014;2024-01-30T02:11:07;163524.81;;;-0.86;100.00
45255;BME280;30989;52.078;21.014;2024-01-30T02:13:33;163520.81;;;-0.87;100.00
45255;BME280;30989;52.078;21.014;2024-01-30T02:15:59;163514.19;;;-0.90;100.00
45255;BME280;30989;52.078;21.014;2024-01-30T02:18:25;163500.91;;;-0.95;100.00
45255;BME280;30989;52.078;21.014;2024-01-30T02:20:55;163486.28;;;-1.01;100.00
45255;BME280;30989;52.078;21.014;2024-01-30T02:23:24;163488.94;;;-1.00;100.00
45255;BME280;30989;52.078;21.014;2024-01-30T02:25:53;163480.97;;;-1.03;100.00
45255;BME280;30989;52.078;21.014;2024-01-30T02:28:21;163473.00;;;-1.06;100.00
45255;BME280;30989;52.078;21.014;2024-01-30T02:30:47;163457.06;;;-1.12;100.00
45255;BME280;30989;52.078;21.014;2024-01-30T02:33:12;163449.09;;;-1.15;100.00
45255;BME280;30989;52.078;21.014;2024-01-30T02:35:38;163443.75;;;-1.17;100.00
45255;BME280;30989;52.078;21.014;2024-01-30T02:38:04;163438.44;;;-1.19;100.00
45255;BME280;30989;52.078;21.014;2024-01-30T02:40:30;163425.16;;;-1.24;100.00
45255;BME280;30989;52.078;21.014;2024-01-30T02:42:56;163413.22;;;-1.28;100.00
45255;BME280;30989;52.078;21.014;2024-01-30T02:45:21;163419.84;;;-1.26;100.00
45255;BME280;30989;52.078;21.014;2024-01-30T02:47:47;163415.88;;;-1.27;100.00
45255;BME280;30989;52.078;21.014;2024-01-30T02:50:12;163409.22;;;-1.30;100.00
45255;BME280;30989;52.078;21.014;2024-01-30T02:52:39;163401.25;;;-1.33;100.00
45255;BME280;30989;52.078;21.014;2024-01-30T02:55:05;163398.59;;;-1.34;100.00
45255;BME280;30989;52.078;21.014;2024-01-30T02:57:30;163393.28;;;-1.36;100.00
45255;BME280;30989;52.078;21.014;2024-01-30T02:59:56;163387.97;;;-1.38;100.00
45255;BME280;30989;52.078;21.014;2024-01-30T03:02:21;163385.31;;;-1.39;100.00
45255;BME280;30989;52.078;21.014;2024-01-30T03:04:47;163362.75;;;-1.48;100.00
45255;BME280;30989;52.078;21.014;2024-01-30T03:07:12;163366.72;;;-1.46;100.00
45255;BME280;30989;52.078;21.014;2024-01-30T03:09:38;163374.69;;;-1.43;100.00
45255;BME280;30989;52.078;21.014;2024-01-30T03:12:04;163370.72;;;-1.45;100.00
45255;BME280;30989;52.078;21.014;2024-01-30T03:14:32;163370.72;;;-1.45;100.00
45255;BME280;30989;52.078;21.014;2024-01-30T03:16:58;163372.03;;;-1.44;100.00
45255;BME280;30989;52.078;21.014;2024-01-30T03:19:23;163369.38;;;-1.45;100.00
45255;BME280;30989;52.078;21.014;2024-01-30T03:21:49;163374.69;;;-1.43;100.00
45255;BME280;30989;52.078;21.014;2024-01-30T03:24:15;163378.69;;;-1.42;100.00
45255;BME280;30989;52.078;21.014;2024-01-30T03:26:40;163381.34;;;-1.41;100.00
45255;BME280;30989;52.078;21.014;2024-01-30T03:29:06;163382.66;;;-1.40;100.00
45255;BME280;30989;52.078;21.014;2024-01-30T03:31:31;163384.00;;;-1.40;100.00
45255;BME280;30989;52.078;21.014;2024-01-30T03:33:57;163381.34;;;-1.41;100.00
45255;BME280;30989;52.078;21.014;2024-01-30T03:36:23;163384.00;;;-1.40;100.00
45255;BME280;30989;52.078;21.014;2024-01-30T03:38:48;163381.34;;;-1.41;100.00
45255;BME280;30989;52.078;21.014;2024-01-30T03:41:14;163387.97;;;-1.38;100.00
45255;BME280;30989;52.078;21.014;2024-01-30T03:43:40;163373.38;;;-1.44;100.00
45255;BME280;30989;52.078;21.014;2024-01-30T03:46:06;163370.72;;;-1.45;100.00
45255;BME280;30989;52.078;21.014;2024-01-30T03:48:32;163389.31;;;-1.38;100.00
45255;BME280;30989;52.078;21.014;2024-01-30T03:50:57;163393.28;;;-1.36;100.00
45255;BME280;30989;52.078;21.014;2024-01-30T03:53:23;163387.97;;;-1.38;100.00
45255;BME280;30989;52.078;21.014;2024-01-30T03:55:48;163394.63;;;-1.36;100.00
45255;BME280;30989;52.078;21.014;2024-01-30T03:58:14;163401.25;;;-1.33;100.00
45255;BME280;30989;52.078;21.014;2024-01-30T04:00:39;163399.94;;;-1.34;100.00
45255;BME280;30989;52.078;21.014;2024-01-30T04:03:06;163384.00;;;-1.40;100.00
45255;BME280;30989;52.078;21.014;2024-01-30T04:05:31;163398.59;;;-1.34;100.00
45255;BME280;30989;52.078;21.014;2024-01-30T04:07:57;163395.94;;;-1.35;100.00
45255;BME280;30989;52.078;21.014;2024-01-30T04:10:23;163393.28;;;-1.36;100.00
45255;BME280;30989;52.078;21.014;2024-01-30T04:12:50;163384.00;;;-1.40;100.00
45255;BME280;30989;52.078;21.014;2024-01-30T04:15:17;163382.66;;;-1.40;100.00
45255;BME280;30989;52.078;21.014;2024-01-30T04:17:42;163374.69;;;-1.43;100.00
45255;BME280;30989;52.078;21.014;2024-01-30T04:20:13;163370.72;;;-1.45;100.00
45255;BME280;30989;52.078;21.014;2024-01-30T04:22:38;163372.03;;;-1.44;100.00
45255;BME280;30989;52.078;21.014;2024-01-30T04:25:04;163370.72;;;-1.45;100.00
45255;BME280;30989;52.078;21.014;2024-01-30T04:27:29;163366.72;;;-1.46;100.00
45255;BME280;30989;52.078;21.014;2024-01-30T04:29:55;163364.06;;;-1.47;100.00
45255;BME280;30989;52.078;21.014;2024-01-30T04:32:20;163360.09;;;-1.49;100.00
45255;BME280;30989;52.078;21.014;2024-01-30T04:34:46;163358.75;;;-1.49;100.00
45255;BME280;30989;52.078;21.014;2024-01-30T04:37:11;163361.41;;;-1.48;100.00
45255;BME280;30989;52.078;21.014;2024-01-30T04:39:36;163360.09;;;-1.49;100.00
45255;BME280;30989;52.078;21.014;2024-01-30T04:42:02;163361.41;;;-1.48;100.00
45255;BME280;30989;52.078;21.014;2024-01-30T04:44:28;163358.75;;;-1.49;100.00
45255;BME280;30989;52.078;21.014;2024-01-30T04:46:53;163334.84;;;-1.58;100.00
45255;BME280;30989;52.078;21.014;2024-01-30T04:49:19;163350.78;;;-1.52;100.00
45255;BME280;30989;52.078;21.014;2024-01-30T04:51:44;163349.47;;;-1.53;100.00
45255;BME280;30989;52.078;21.014;2024-01-30T04:54:09;163345.47;;;-1.54;100.00
45255;BME280;30989;52.078;21.014;2024-01-30T04:56:35;163341.50;;;-1.56;100.00
45255;BME280;30989;52.078;21.014;2024-01-30T04:59:02;163330.88;;;-1.60;100.00
45255;BME280;30989;52.078;21.014;2024-01-30T05:01:27;163337.50;;;-1.57;100.00
45255;BME280;30989;52.078;21.014;2024-01-30T05:03:53;163337.50;;;-1.57;100.00
45255;BME280;30989;52.078;21.014;2024-01-30T05:06:25;163336.19;;;-1.58;100.00
45255;BME280;30989;52.078;21.014;2024-01-30T05:08:51;163334.84;;;-1.58;100.00
45255;BME280;30989;52.078;21.014;2024-01-30T05:11:17;163332.19;;;-1.59;100.00
45255;BME280;30989;52.078;21.014;2024-01-30T05:13:42;163330.88;;;-1.60;100.00
45255;BME280;30989;52.078;21.014;2024-01-30T05:16:07;163329.53;;;-1.60;100.00
45255;BME280;30989;52.078;21.014;2024-01-30T05:18:33;163321.56;;;-1.64;100.00
45255;BME280;30989;52.078;21.014;2024-01-30T05:20:58;163324.22;;;-1.63;100.00
45255;BME280;30989;52.078;21.014;2024-01-30T05:23:24;163314.94;;;-1.66;100.00
45255;BME280;30989;52.078;21.014;2024-01-30T05:25:50;163324.22;;;-1.63;100.00
45255;BME280;30989;52.078;21.014;2024-01-30T05:28:15;163305.63;;;-1.70;100.00
45255;BME280;30989;52.078;21.014;2024-01-30T05:30:41;163317.59;;;-1.65;100.00
45255;BME280;30989;52.078;21.014;2024-01-30T05:33:06;163313.59;;;-1.67;100.00
45255;BME280;30989;52.078;21.014;2024-01-30T05:35:32;163297.66;;;-1.73;100.00
45255;BME280;30989;52.078;21.014;2024-01-30T05:38:00;163309.63;;;-1.68;100.00
45255;BME280;30989;52.078;21.014;2024-01-30T05:40:26;163302.97;;;-1.71;100.00
45255;BME280;30989;52.078;21.014;2024-01-30T05:42:51;163302.97;;;-1.71;100.00
45255;BME280;30989;52.078;21.014;2024-01-30T05:45:16;163304.31;;;-1.70;100.00
45255;BME280;30989;52.078;21.014;2024-01-30T05:47:42;163305.63;;;-1.70;100.00
45255;BME280;30989;52.078;21.014;2024-01-30T05:50:07;163297.66;;;-1.73;100.00
45255;BME280;30989;52.078;21.014;2024-01-30T05:52:33;163313.59;;;-1.67;100.00
45255;BME280;30989;52.078;21.014;2024-01-30T05:54:58;163316.25;;;-1.66;100.00
45255;BME280;30989;52.078;21.014;2024-01-30T05:57:24;163318.91;;;-1.65;100.00
45255;BME280;30989;52.078;21.014;2024-01-30T05:59:49;163329.53;;;-1.60;100.00
45255;BME280;30989;52.078;21.014;2024-01-30T06:02:17;163332.19;;;-1.59;100.00
45255;BME280;30989;52.078;21.014;2024-01-30T06:04:42;163329.53;;;-1.60;100.00
45255;BME280;30989;52.078;21.014;2024-01-30T06:07:08;163332.19;;;-1.59;100.00
45255;BME280;30989;52.078;21.014;2024-01-30T06:09:33;163342.81;;;-1.55;100.00
45255;BME280;30989;52.078;21.014;2024-01-30T06:11:59;163342.81;;;-1.55;100.00
45255;BME280;30989;52.078;21.014;2024-01-30T06:14:24;163345.47;;;-1.54;100.00
45255;BME280;30989;52.078;21.014;2024-01-30T06:16:49;163348.13;;;-1.53;100.00
45255;BME280;30989;52.078;21.014;2024-01-30T06:19:15;163342.81;;;-1.55;100.00
45255;BME280;30989;52.078;21.014;2024-01-30T06:21:41;163340.16;;;-1.56;100.00
45255;BME280;30989;52.078;21.014;2024-01-30T06:24:06;163361.41;;;-1.48;100.00
45255;BME280;30989;52.078;21.014;2024-01-30T06:26:32;163358.75;;;-1.49;100.00
45255;BME280;30989;52.078;21.014;2024-01-30T06:28:57;163368.06;;;-1.46;100.00
45255;BME280;30989;52.078;21.014;2024-01-30T06:31:22;163381.34;;;-1.41;100.00
45255;BME280;30989;52.078;21.014;2024-01-30T06:33:48;163385.31;;;-1.39;100.00
45255;BME280;30989;52.078;21.014;2024-01-30T06:36:14;163384.00;;;-1.40;100.00
45255;BME280;30989;52.078;21.014;2024-01-30T06:38:40;163403.91;;;-1.32;100.00
45255;BME280;30989;52.078;21.014;2024-01-30T06:41:06;163393.28;;;-1.36;100.00
45255;BME280;30989;52.078;21.014;2024-01-30T06:43:31;163417.19;;;-1.27;100.00
45255;BME280;30989;52.078;21.014;2024-01-30T06:45:57;163427.81;;;-1.23;100.00
45255;BME280;30989;52.078;21.014;2024-01-30T06:48:22;163435.78;;;-1.20;100.00
45255;BME280;30989;52.078;21.014;2024-01-30T06:50:48;163422.50;;;-1.25;100.00
45255;BME280;30989;52.078;21.014;2024-01-30T06:53:14;163451.75;;;-1.14;100.00
45255;BME280;30989;52.078;21.014;2024-01-30T06:55:40;163465.03;;;-1.09;100.00
45255;BME280;30989;52.078;21.014;2024-01-30T06:58:05;163473.00;;;-1.06;100.00
45255;BME280;30989;52.078;21.014;2024-01-30T07:00:31;163483.63;;;-1.02;100.00
45255;BME280;30989;52.078;21.014;2024-01-30T07:02:56;163492.91;;;-0.98;100.00
45255;BME280;30989;52.078;21.014;2024-01-30T07:05:22;163503.56;;;-0.94;100.00
45255;BME280;30989;52.078;21.014;2024-01-30T07:07:48;163512.84;;;-0.90;100.00
45255;BME280;30989;52.078;21.014;2024-01-30T07:10:14;163511.53;;;-0.91;100.00
45255;BME280;30989;52.078;21.014;2024-01-30T07:12:39;163519.50;;;-0.88;100.00
45255;BME280;30989;52.078;21.014;2024-01-30T07:15:05;163526.16;;;-0.85;100.00
45255;BME280;30989;52.078;21.014;2024-01-30T07:17:34;163526.16;;;-0.85;100.00
45255;BME280;30989;52.078;21.014;2024-01-30T07:20:00;163540.75;;;-0.80;100.00
45255;BME280;30989;52.078;21.014;2024-01-30T07:22:26;163536.78;;;-0.81;100.00
45255;BME280;30989;52.078;21.014;2024-01-30T07:24:51;163552.72;;;-0.75;100.00
45255;BME280;30989;52.078;21.014;2024-01-30T07:27:17;163558.03;;;-0.73;100.00
45255;BME280;30989;52.078;21.014;2024-01-30T07:29:43;163558.03;;;-0.73;100.00
45255;BME280;30989;52.078;21.014;2024-01-30T07:32:09;163564.69;;;-0.71;100.00
45255;BME280;30989;52.078;21.014;2024-01-30T07:34:34;163589.94;;;-0.61;100.00
45255;BME280;30989;52.078;21.014;2024-01-30T07:36:59;163604.56;;;-0.55;100.00
45255;BME280;30989;52.078;21.014;2024-01-30T07:39:25;163624.47;;;-0.48;100.00
45255;BME280;30989;52.078;21.014;2024-01-30T07:41:51;163645.75;;;-0.40;100.00
45255;BME280;30989;52.078;21.014;2024-01-30T07:44:16;163672.34;;;-0.29;100.00
45255;BME280;30989;52.078;21.014;2024-01-30T07:46:42;163698.94;;;-0.19;100.00
45255;BME280;30989;52.078;21.014;2024-01-30T07:49:07;163725.53;;;-0.09;100.00
45255;BME280;30989;52.078;21.014;2024-01-30T07:51:33;163760.13;;;0.04;100.00
45255;BME280;30989;52.078;21.014;2024-01-30T07:53:58;163789.38;;;0.15;100.00
45255;BME280;30989;52.078;21.014;2024-01-30T07:56:24;163818.66;;;0.26;100.00
45255;BME280;30989;52.078;21.014;2024-01-30T07:58:49;163830.63;;;0.31;100.00
45255;BME280;30989;52.078;21.014;2024-01-30T08:01:15;163874.50;;;0.48;100.00
45255;BME280;30989;52.078;21.014;2024-01-30T08:03:41;163895.78;;;0.56;100.00
45255;BME280;30989;52.078;21.014;2024-01-30T08:06:07;163923.72;;;0.67;100.00
45255;BME280;30989;52.078;21.014;2024-01-30T08:08:32;163959.66;;;0.80;100.00
45255;BME280;30989;52.078;21.014;2024-01-30T08:10:57;163990.25;;;0.92;100.00
45255;BME280;30989;52.078;21.014;2024-01-30T08:13:23;164015.53;;;1.02;100.00
45255;BME280;30989;52.078;21.014;2024-01-30T08:15:48;164039.47;;;1.11;100.00
45255;BME280;30989;52.078;21.014;2024-01-30T08:18:14;164058.09;;;1.18;100.00
45255;BME280;30989;52.078;21.014;2024-01-30T08:20:39;164088.72;;;1.29;100.00
45255;BME280;30989;52.078;21.014;2024-01-30T08:23:05;164094.03;;;1.32;100.00
45255;BME280;30989;52.078;21.014;2024-01-30T08:25:30;164125.97;;;1.44;100.00
45255;BME280;30989;52.078;21.014;2024-01-30T08:27:56;164147.28;;;1.52;100.00
45255;BME280;30989;52.078;21.014;2024-01-30T08:30:22;164168.59;;;1.60;100.00
45255;BME280;30989;52.078;21.014;2024-01-30T08:32:47;164188.56;;;1.68;100.00
45255;BME280;30989;52.078;21.014;2024-01-30T08:35:13;164201.84;;;1.73;100.00
45255;BME280;30989;52.078;21.014;2024-01-30T08:37:40;164228.50;;;1.83;100.00
45255;BME280;30989;52.078;21.014;2024-01-30T08:40:06;164227.16;;;1.82;100.00
45255;BME280;30989;52.078;21.014;2024-01-30T08:42:33;164263.09;;;1.96;100.00
45255;BME280;30989;52.078;21.014;2024-01-30T08:44:59;164285.75;;;2.05;100.00
45255;BME280;30989;52.078;21.014;2024-01-30T08:47:24;164303.06;;;2.11;100.00
45255;BME280;30989;52.078;21.014;2024-01-30T08:49:50;164331.03;;;2.22;100.00
45255;BME280;30989;52.078;21.014;2024-01-30T08:52:16;164359.00;;;2.33;100.00
45255;BME280;30989;52.078;21.014;2024-01-30T08:54:42;164380.31;;;2.41;100.00
45255;BME280;30989;52.078;21.014;2024-01-30T08:57:08;164390.97;;;2.45;100.00
45255;BME280;30989;52.078;21.014;2024-01-30T08:59:33;164417.59;;;2.55;100.00
45255;BME280;30989;52.078;21.014;2024-01-30T09:02:02;164441.56;;;2.64;100.00
45255;BME280;30989;52.078;21.014;2024-01-30T09:04:28;164462.91;;;2.72;100.00
45255;BME280;30989;52.078;21.014;2024-01-30T09:06:54;164485.53;;;2.81;100.00
45255;BME280;30989;52.078;21.014;2024-01-30T09:09:20;164505.53;;;2.88;100.00
45255;BME280;30989;52.078;21.014;2024-01-30T09:11:45;164526.84;;;2.97;100.00
45255;BME280;30989;52.078;21.014;2024-01-30T09:14:11;164542.84;;;3.03;100.00
45255;BME280;30989;52.078;21.014;2024-01-30T09:16:37;164561.50;;;3.10;100.00
45255;BME280;30989;52.078;21.014;2024-01-30T09:19:02;164560.16;;;3.09;100.00
45255;BME280;30989;52.078;21.014;2024-01-30T09:21:28;164601.47;;;3.25;100.00
45255;BME280;30989;52.078;21.014;2024-01-30T09:24:02;164624.13;;;3.34;100.00
45255;BME280;30989;52.078;21.014;2024-01-30T09:26:30;164644.13;;;3.41;100.00
45255;BME280;30989;52.078;21.014;2024-01-30T09:28:56;164661.44;;;3.48;100.00
45255;BME280;30989;52.078;21.014;2024-01-30T09:31:21;164681.44;;;3.55;100.00
45255;BME280;30989;52.078;21.014;2024-01-30T09:33:47;164700.13;;;3.63;100.00
45255;BME280;30989;52.078;21.014;2024-01-30T09:36:13;164721.44;;;3.71;100.00
45255;BME280;30989;52.078;21.014;2024-01-30T09:38:40;164725.44;;;3.72;100.00
45255;BME280;30989;52.078;21.014;2024-01-30T09:41:09;164748.09;;;3.81;100.00
45255;BME280;30989;52.078;21.014;2024-01-30T09:43:37;164769.44;;;3.89;100.00
45255;BME280;30989;52.078;21.014;2024-01-30T09:46:05;164785.44;;;3.95;100.00
45255;BME280;30989;52.078;21.014;2024-01-30T09:48:32;164796.09;;;3.99;100.00
45255;BME280;30989;52.078;21.014;2024-01-30T09:50:58;164814.78;;;4.06;100.00
45255;BME280;30989;52.078;21.014;2024-01-30T09:53:24;164833.44;;;4.13;100.00
45255;BME280;30989;52.078;21.014;2024-01-30T09:55:50;164838.78;;;4.15;100.00
45255;BME280;30989;52.078;21.014;2024-01-30T09:58:16;164846.78;;;4.18;99.37
45255;BME280;30989;52.078;21.014;2024-01-30T10:00:42;164858.78;;;4.23;100.00
45255;BME280;30989;52.078;21.014;2024-01-30T10:03:08;164876.13;;;4.30;100.00
45255;BME280;30989;52.078;21.014;2024-01-30T10:05:35;164898.81;;;4.38;100.00
45255;BME280;30989;52.078;21.014;2024-01-30T10:08:06;164929.47;;;4.50;100.00
45255;BME280;30989;52.078;21.014;2024-01-30T10:10:34;164930.81;;;4.50;96.54
45255;BME280;30989;52.078;21.014;2024-01-30T10:13:00;164949.50;;;4.58;99.69
45255;BME280;30989;52.078;21.014;2024-01-30T10:15:28;164956.16;;;4.60;95.20
45255;BME280;30989;52.078;21.014;2024-01-30T10:17:53;164956.16;;;4.60;97.86
45255;BME280;30989;52.078;21.014;2024-01-30T10:20:19;164980.19;;;4.69;96.98
45255;BME280;30989;52.078;21.014;2024-01-30T10:22:45;164985.50;;;4.71;94.51
45255;BME280;30989;52.078;21.014;2024-01-30T10:25:11;165012.19;;;4.81;97.08
45255;BME280;30989;52.078;21.014;2024-01-30T10:27:36;165034.88;;;4.90;97.12
45255;BME280;30989;52.078;21.014;2024-01-30T10:30:02;165081.59;;;5.08;94.26
45255;BME280;30989;52.078;21.014;2024-01-30T10:32:29;165143.03;;;5.31;95.51
45255;BME280;30989;52.078;21.014;2024-01-30T10:34:54;165241.81;;;5.69;96.35
45255;BME280;30989;52.078;21.014;2024-01-30T10:37:21;165391.41;;;6.26;92.51
45255;BME280;30989;52.078;21.014;2024-01-30T10:39:53;165542.34;;;6.83;93.47
45255;BME280;30989;52.078;21.014;2024-01-30T10:42:18;165659.94;;;7.28;89.93
45255;BME280;30989;52.078;21.014;2024-01-30T10:47:26;165917.97;;;8.26;85.12
45255;BME280;30989;52.078;21.014;2024-01-30T10:49:52;166026.34;;;8.67;81.23
45255;BME280;30989;52.078;21.014;2024-01-30T10:52:20;166058.47;;;8.79;75.82
45255;BME280;30989;52.078;21.014;2024-01-30T10:54:46;166091.91;;;8.92;80.02
45255;BME280;30989;52.078;21.014;2024-01-30T10:57:13;166186.91;;;9.28;82.43
45255;BME280;30989;52.078;21.014;2024-01-30T10:59:41;166283.28;;;9.64;80.94
45255;BME280;30989;52.078;21.014;2024-01-30T11:02:07;166391.72;;;10.06;80.34
45255;BME280;30989;52.078;21.014;2024-01-30T11:04:37;166520.34;;;10.54;78.17
45255;BME280;30989;52.078;21.014;2024-01-30T11:07:02;166500.28;;;10.47;70.62
45255;BME280;30989;52.078;21.014;2024-01-30T11:09:29;166512.31;;;10.51;75.07
45255;BME280;30989;52.078;21.014;2024-01-30T11:11:58;166564.56;;;10.71;71.08
45255;BME280;30989;52.078;21.014;2024-01-30T11:14:27;166604.75;;;10.86;70.87
45255;BME280;30989;52.078;21.014;2024-01-30T11:16:57;166636.91;;;10.98;69.49
45255;BME280;30989;52.078;21.014;2024-01-30T11:19:24;166581.97;;;10.78;69.93
45255;BME280;30989;52.078;21.014;2024-01-30T11:21:51;166583.31;;;10.78;69.41
45255;BME280;30989;52.078;21.014;2024-01-30T11:24:24;166616.81;;;10.91;69.79
45255;BME280;30989;52.078;21.014;2024-01-30T11:26:55;166681.09;;;11.15;71.10
45255;BME280;30989;52.078;21.014;2024-01-30T11:29:27;166746.75;;;11.40;68.53
45255;BME280;30989;52.078;21.014;2024-01-30T11:31:56;166805.72;;;11.62;68.29
45255;BME280;30989;52.078;21.014;2024-01-30T11:34:22;166801.72;;;11.61;67.75
45255;BME280;30989;52.078;21.014;2024-01-30T11:36:52;166760.16;;;11.45;62.51
45255;BME280;30989;52.078;21.014;2024-01-30T11:39:24;166737.38;;;11.37;64.25
45255;BME280;30989;52.078;21.014;2024-01-30T11:41:51;166738.72;;;11.37;64.48
45255;BME280;30989;52.078;21.014;2024-01-30T11:44:17;166732.03;;;11.35;64.12
45255;BME280;30989;52.078;21.014;2024-01-30T11:46:42;166725.31;;;11.32;62.65
45255;BME280;30989;52.078;21.014;2024-01-30T11:49:08;166705.22;;;11.24;62.83
45255;BME280;30989;52.078;21.014;2024-01-30T11:51:33;166723.97;;;11.32;67.48
45255;BME280;30989;52.078;21.014;2024-01-30T11:53:59;166785.63;;;11.55;60.64
45255;BME280;30989;52.078;21.014;2024-01-30T11:56:24;166795.00;;;11.58;64.06
45255;BME280;30989;52.078;21.014;2024-01-30T11:58:52;166709.25;;;11.26;57.18
45255;BME280;30989;52.078;21.014;2024-01-30T12:01:17;166694.50;;;11.20;60.94
45255;BME280;30989;52.078;21.014;2024-01-30T12:03:49;166695.84;;;11.21;59.81
45255;BME280;30989;52.078;21.014;2024-01-30T12:06:15;166726.66;;;11.33;64.84
45255;BME280;30989;52.078;21.014;2024-01-30T12:08:41;166762.84;;;11.46;62.85
45255;BME280;30989;52.078;21.014;2024-01-30T12:11:07;166761.50;;;11.46;58.92
45255;BME280;30989;52.078;21.014;2024-01-30T12:13:33;166732.03;;;11.35;64.33
45255;BME280;30989;52.078;21.014;2024-01-30T12:15:59;166754.81;;;11.43;60.77
45255;BME280;30989;52.078;21.014;2024-01-30T12:18:27;166770.88;;;11.49;61.52
45255;BME280;30989;52.078;21.014;2024-01-30T12:20:59;166737.38;;;11.37;62.74
45255;BME280;30989;52.078;21.014;2024-01-30T12:23:26;166711.94;;;11.27;62.52
45255;BME280;30989;52.078;21.014;2024-01-30T12:25:52;166683.78;;;11.16;60.54
45255;BME280;30989;52.078;21.014;2024-01-30T12:28:17;166635.56;;;10.98;63.45
45255;BME280;30989;52.078;21.014;2024-01-30T12:30:43;166595.38;;;10.83;63.76
45255;BME280;30989;52.078;21.014;2024-01-30T12:33:08;166567.25;;;10.72;62.46